sensor_id;sensor_type;location;lat;lon;timestamp;P1;durP1;ratioP1;P2;durP2;ratioP2
15063;SDS011;7631;52.088;5.088;2023-05-29T00:02:12;6.40;;;2.33;;
15063;SDS011;7631;52.088;5.088;2023-05-29T00:04:37;6.87;;;2.70;;
15063;SDS011;7631;52.088;5.088;2023-05-29T00:07:02;6.63;;;3.00;;
15063;SDS011;7631;52.088;5.088;2023-05-29T00:09:28;7.67;;;2.93;;
15063;SDS011;7631;52.088;5.088;2023-05-29T00:11:54;8.77;;;3.10;;
15063;SDS011;7631;52.088;5.088;2023-05-29T00:14:19;7.63;;;2.90;;
15063;SDS011;7631;52.088;5.088;2023-05-29T00:16:47;7.43;;;2.63;;
15063;SDS011;7631;52.088;5.088;2023-05-29T00:19:14;5.27;;;2.57;;
15063;SDS011;7631;52.088;5.088;2023-05-29T00:21:41;7.07;;;2.70;;
15063;SDS011;7631;52.088;5.088;2023-05-29T00:24:07;7.13;;;2.40;;
15063;SDS011;7631;52.088;5.088;2023-05-29T00:26:32;7.23;;;2.40;;
15063;SDS011;7631;52.088;5.088;2023-05-29T00:28:57;8.23;;;2.50;;
15063;SDS011;7631;52.088;5.088;2023-05-29T00:31:22;5.90;;;2.40;;
15063;SDS011;7631;52.088;5.088;2023-05-29T00:33:49;7.37;;;2.97;;
15063;SDS011;7631;52.088;5.088;2023-05-29T00:36:14;8.23;;;2.30;;
15063;SDS011;7631;52.088;5.088;2023-05-29T00:38:40;7.10;;;2.40;;
15063;SDS011;7631;52.088;5.088;2023-05-29T00:41:05;7.27;;;2.50;;
15063;SDS011;7631;52.088;5.088;2023-05-29T00:43:30;7.97;;;2.70;;
15063;SDS011;7631;52.088;5.088;2023-05-29T00:45:55;7.53;;;2.73;;
15063;SDS011;7631;52.088;5.088;2023-05-29T00:48:20;7.33;;;2.73;;
15063;SDS011;7631;52.088;5.088;2023-05-29T00:50:46;6.43;;;2.63;;
15063;SDS011;7631;52.088;5.088;2023-05-29T00:53:11;9.33;;;2.57;;
15063;SDS011;7631;52.088;5.088;2023-05-29T00:55:36;6.67;;;2.43;;
15063;SDS011;7631;52.088;5.088;2023-05-29T00:58:02;5.97;;;2.57;;
15063;SDS011;7631;52.088;5.088;2023-05-29T01:00:28;5.60;;;2.60;;
15063;SDS011;7631;52.088;5.088;2023-05-29T01:02:55;6.63;;;2.60;;
15063;SDS011;7631;52.088;5.088;2023-05-29T01:05:21;5.77;;;2.23;;
15063;SDS011;7631;52.088;5.088;2023-05-29T01:07:47;6.80;;;2.30;;
15063;SDS011;7631;52.088;5.088;2023-05-29T01:10:13;9.90;;;2.23;;
15063;SDS011;7631;52.088;5.088;2023-05-29T01:15:14;7.60;;;2.40;;
15063;SDS011;7631;52.088;5.088;2023-05-29T01:17:58;6.30;;;2.33;;
15063;SDS011;7631;52.088;5.088;2023-05-29T01:20:27;6.63;;;2.70;;
15063;SDS011;7631;52.088;5.088;2023-05-29T01:25:46;7.00;;;2.10;;
15063;SDS011;7631;52.088;5.088;2023-05-29T01:28:14;5.53;;;2.00;;
15063;SDS011;7631;52.088;5.088;2023-05-29T01:30:41;7.00;;;2.40;;
15063;SDS011;7631;52.088;5.088;2023-05-29T01:33:06;5.27;;;2.00;;
15063;SDS011;7631;52.088;5.088;2023-05-29T01:35:31;7.63;;;2.40;;
15063;SDS011;7631;52.088;5.088;2023-05-29T01:37:57;7.43;;;2.13;;
15063;SDS011;7631;52.088;5.088;2023-05-29T01:40:22;5.87;;;2.23;;
15063;SDS011;7631;52.088;5.088;2023-05-29T01:42:47;7.57;;;2.30;;
15063;SDS011;7631;52.088;5.088;2023-05-29T01:45:13;6.40;;;1.97;;
15063;SDS011;7631;52.088;5.088;2023-05-29T01:47:38;6.10;;;2.10;;
15063;SDS011;7631;52.088;5.088;2023-05-29T01:50:03;5.23;;;2.03;;
15063;SDS011;7631;52.088;5.088;2023-05-29T01:52:29;5.87;;;2.10;;
15063;SDS011;7631;52.088;5.088;2023-05-29T01:54:54;6.73;;;2.37;;
15063;SDS011;7631;52.088;5.088;2023-05-29T01:57:20;7.00;;;2.30;;
15063;SDS011;7631;52.088;5.088;2023-05-29T01:59:45;7.20;;;2.37;;
15063;SDS011;7631;52.088;5.088;2023-05-29T02:02:11;4.37;;;2.03;;
15063;SDS011;7631;52.088;5.088;2023-05-29T02:04:39;6.93;;;2.43;;
15063;SDS011;7631;52.088;5.088;2023-05-29T02:07:04;5.27;;;2.00;;
15063;SDS011;7631;52.088;5.088;2023-05-29T02:09:31;5.77;;;2.10;;
15063;SDS011;7631;52.088;5.088;2023-05-29T02:11:56;7.03;;;2.50;;
15063;SDS011;7631;52.088;5.088;2023-05-29T02:14:21;8.57;;;1.97;;
15063;SDS011;7631;52.088;5.088;2023-05-29T02:16:49;4.53;;;1.80;;
15063;SDS011;7631;52.088;5.088;2023-05-29T02:19:16;6.13;;;1.97;;
15063;SDS011;7631;52.088;5.088;2023-05-29T02:21:43;5.37;;;1.90;;
15063;SDS011;7631;52.088;5.088;2023-05-29T02:24:08;5.03;;;2.07;;
15063;SDS011;7631;52.088;5.088;2023-05-29T02:26:33;5.90;;;2.10;;
15063;SDS011;7631;52.088;5.088;2023-05-29T02:28:58;5.00;;;2.00;;
15063;SDS011;7631;52.088;5.088;2023-05-29T02:31:24;8.00;;;2.17;;
15063;SDS011;7631;52.088;5.088;2023-05-29T02:33:49;7.00;;;2.00;;
15063;SDS011;7631;52.088;5.088;2023-05-29T02:36:14;5.63;;;2.03;;
15063;SDS011;7631;52.088;5.088;2023-05-29T02:38:41;5.70;;;2.20;;
15063;SDS011;7631;52.088;5.088;2023-05-29T02:41:06;7.43;;;2.47;;
15063;SDS011;7631;52.088;5.088;2023-05-29T02:43:31;6.50;;;2.00;;
15063;SDS011;7631;52.088;5.088;2023-05-29T02:45:56;5.17;;;2.07;;
15063;SDS011;7631;52.088;5.088;2023-05-29T02:48:22;5.23;;;1.93;;
15063;SDS011;7631;52.088;5.088;2023-05-29T02:50:47;7.07;;;2.20;;
15063;SDS011;7631;52.088;5.088;2023-05-29T02:53:12;5.60;;;2.20;;
15063;SDS011;7631;52.088;5.088;2023-05-29T02:55:37;5.07;;;2.20;;
15063;SDS011;7631;52.088;5.088;2023-05-29T02:58:03;6.33;;;2.03;;
15063;SDS011;7631;52.088;5.088;2023-05-29T03:00:28;4.13;;;1.97;;
15063;SDS011;7631;52.088;5.088;2023-05-29T03:02:53;5.50;;;1.73;;
15063;SDS011;7631;52.088;5.088;2023-05-29T03:05:19;6.27;;;2.17;;
15063;SDS011;7631;52.088;5.088;2023-05-29T03:07:44;6.93;;;2.23;;
15063;SDS011;7631;52.088;5.088;2023-05-29T03:10:09;5.40;;;1.80;;
15063;SDS011;7631;52.088;5.088;2023-05-29T03:12:34;4.67;;;1.60;;
15063;SDS011;7631;52.088;5.088;2023-05-29T03:15:00;5.27;;;1.97;;
15063;SDS011;7631;52.088;5.088;2023-05-29T03:17:25;7.73;;;2.20;;
15063;SDS011;7631;52.088;5.088;2023-05-29T03:19:50;5.57;;;1.97;;
15063;SDS011;7631;52.088;5.088;2023-05-29T03:22:16;5.93;;;1.90;;
15063;SDS011;7631;52.088;5.088;2023-05-29T03:24:41;6.17;;;1.97;;
15063;SDS011;7631;52.088;5.088;2023-05-29T03:27:06;6.67;;;2.10;;
15063;SDS011;7631;52.088;5.088;2023-05-29T03:29:31;5.37;;;1.63;;
15063;SDS011;7631;52.088;5.088;2023-05-29T03:31:57;7.07;;;2.35;;
15063;SDS011;7631;52.088;5.088;2023-05-29T03:34:22;7.83;;;2.27;;
15063;SDS011;7631;52.088;5.088;2023-05-29T03:36:47;5.03;;;1.93;;
15063;SDS011;7631;52.088;5.088;2023-05-29T03:39:12;4.53;;;1.97;;
15063;SDS011;7631;52.088;5.088;2023-05-29T03:41:38;7.73;;;2.27;;
15063;SDS011;7631;52.088;5.088;2023-05-29T03:44:03;3.73;;;1.50;;
15063;SDS011;7631;52.088;5.088;2023-05-29T03:46:29;5.03;;;1.67;;
15063;SDS011;7631;52.088;5.088;2023-05-29T03:48:54;5.67;;;1.87;;
15063;SDS011;7631;52.088;5.088;2023-05-29T03:51:19;5.83;;;1.83;;
15063;SDS011;7631;52.088;5.088;2023-05-29T03:53:45;6.70;;;1.73;;
15063;SDS011;7631;52.088;5.088;2023-05-29T03:56:10;5.20;;;1.77;;
15063;SDS011;7631;52.088;5.088;2023-05-29T03:58:35;5.83;;;1.90;;
15063;SDS011;7631;52.088;5.088;2023-05-29T04:01:01;6.10;;;1.80;;
15063;SDS011;7631;52.088;5.088;2023-05-29T04:03:26;5.97;;;1.67;;
15063;SDS011;7631;52.088;5.088;2023-05-29T04:05:52;5.80;;;1.90;;
15063;SDS011;7631;52.088;5.088;2023-05-29T04:08:17;5.60;;;1.73;;
15063;SDS011;7631;52.088;5.088;2023-05-29T04:10:42;6.13;;;2.03;;
15063;SDS011;7631;52.088;5.088;2023-05-29T04:13:08;5.50;;;1.57;;
15063;SDS011;7631;52.088;5.088;2023-05-29T04:15:33;7.53;;;1.50;;
15063;SDS011;7631;52.088;5.088;2023-05-29T04:17:59;5.27;;;1.87;;
15063;SDS011;7631;52.088;5.088;2023-05-29T04:20:25;4.17;;;1.63;;
15063;SDS011;7631;52.088;5.088;2023-05-29T04:22:50;5.37;;;1.50;;
15063;SDS011;7631;52.088;5.088;2023-05-29T04:25:15;4.47;;;1.93;;
15063;SDS011;7631;52.088;5.088;2023-05-29T04:27:41;6.07;;;1.73;;
15063;SDS011;7631;52.088;5.088;2023-05-29T04:30:07;5.07;;;1.80;;
15063;SDS011;7631;52.088;5.088;2023-05-29T04:32:32;6.77;;;2.17;;
15063;SDS011;7631;52.088;5.088;2023-05-29T04:34:58;6.00;;;1.70;;
15063;SDS011;7631;52.088;5.088;2023-05-29T04:37:27;5.20;;;1.97;;
15063;SDS011;7631;52.088;5.088;2023-05-29T04:39:54;4.20;;;1.93;;
15063;SDS011;7631;52.088;5.088;2023-05-29T04:42:19;6.37;;;1.87;;
15063;SDS011;7631;52.088;5.088;2023-05-29T04:44:44;5.37;;;1.70;;
15063;SDS011;7631;52.088;5.088;2023-05-29T04:47:09;3.20;;;1.40;;
15063;SDS011;7631;52.088;5.088;2023-05-29T04:49:37;4.47;;;1.50;;
15063;SDS011;7631;52.088;5.088;2023-05-29T04:52:03;5.97;;;1.70;;
15063;SDS011;7631;52.088;5.088;2023-05-29T04:54:29;6.53;;;1.93;;
15063;SDS011;7631;52.088;5.088;2023-05-29T04:56:55;6.63;;;1.93;;
15063;SDS011;7631;52.088;5.088;2023-05-29T04:59:20;5.67;;;2.07;;
15063;SDS011;7631;52.088;5.088;2023-05-29T05:01:45;5.23;;;1.63;;
15063;SDS011;7631;52.088;5.088;2023-05-29T05:04:12;4.93;;;1.70;;
15063;SDS011;7631;52.088;5.088;2023-05-29T05:06:37;3.50;;;1.53;;
15063;SDS011;7631;52.088;5.088;2023-05-29T05:09:04;4.30;;;1.63;;
15063;SDS011;7631;52.088;5.088;2023-05-29T05:11:29;6.53;;;2.23;;
15063;SDS011;7631;52.088;5.088;2023-05-29T05:13:54;4.90;;;1.63;;
15063;SDS011;7631;52.088;5.088;2023-05-29T05:16:19;3.80;;;1.70;;
15063;SDS011;7631;52.088;5.088;2023-05-29T05:18:45;7.77;;;1.80;;
15063;SDS011;7631;52.088;5.088;2023-05-29T05:21:10;5.30;;;1.70;;
15063;SDS011;7631;52.088;5.088;2023-05-29T05:23:35;4.93;;;1.70;;
15063;SDS011;7631;52.088;5.088;2023-05-29T05:26:00;6.57;;;1.97;;
15063;SDS011;7631;52.088;5.088;2023-05-29T05:28:25;4.97;;;1.70;;
15063;SDS011;7631;52.088;5.088;2023-05-29T05:30:51;5.70;;;1.63;;
15063;SDS011;7631;52.088;5.088;2023-05-29T05:33:16;5.47;;;2.00;;
15063;SDS011;7631;52.088;5.088;2023-05-29T05:35:42;7.00;;;1.90;;
15063;SDS011;7631;52.088;5.088;2023-05-29T05:38:07;5.57;;;1.90;;
15063;SDS011;7631;52.088;5.088;2023-05-29T05:40:32;8.63;;;2.30;;
15063;SDS011;7631;52.088;5.088;2023-05-29T05:42:58;4.03;;;1.73;;
15063;SDS011;7631;52.088;5.088;2023-05-29T05:45:23;6.07;;;1.70;;
15063;SDS011;7631;52.088;5.088;2023-05-29T05:47:48;5.97;;;1.70;;
15063;SDS011;7631;52.088;5.088;2023-05-29T05:50:14;5.63;;;1.83;;
15063;SDS011;7631;52.088;5.088;2023-05-29T05:52:39;5.23;;;1.90;;
15063;SDS011;7631;52.088;5.088;2023-05-29T05:55:04;7.50;;;2.00;;
15063;SDS011;7631;52.088;5.088;2023-05-29T05:57:30;6.13;;;2.30;;
15063;SDS011;7631;52.088;5.088;2023-05-29T05:59:57;7.80;;;2.27;;
15063;SDS011;7631;52.088;5.088;2023-05-29T06:02:22;5.67;;;1.97;;
15063;SDS011;7631;52.088;5.088;2023-05-29T06:04:48;9.50;;;2.70;;
15063;SDS011;7631;52.088;5.088;2023-05-29T06:07:14;5.97;;;1.90;;
15063;SDS011;7631;52.088;5.088;2023-05-29T06:09:39;4.40;;;1.77;;
15063;SDS011;7631;52.088;5.088;2023-05-29T06:12:04;6.03;;;2.20;;
15063;SDS011;7631;52.088;5.088;2023-05-29T06:14:32;5.70;;;2.00;;
15063;SDS011;7631;52.088;5.088;2023-05-29T06:16:57;9.17;;;2.17;;
15063;SDS011;7631;52.088;5.088;2023-05-29T06:19:23;8.20;;;2.13;;
15063;SDS011;7631;52.088;5.088;2023-05-29T06:21:48;7.37;;;2.13;;
15063;SDS011;7631;52.088;5.088;2023-05-29T06:24:13;8.13;;;2.40;;
15063;SDS011;7631;52.088;5.088;2023-05-29T06:26:39;5.30;;;1.80;;
15063;SDS011;7631;52.088;5.088;2023-05-29T06:29:04;6.53;;;1.80;;
15063;SDS011;7631;52.088;5.088;2023-05-29T06:31:31;6.20;;;2.20;;
15063;SDS011;7631;52.088;5.088;2023-05-29T06:33:56;6.00;;;1.93;;
15063;SDS011;7631;52.088;5.088;2023-05-29T06:36:22;4.80;;;1.87;;
15063;SDS011;7631;52.088;5.088;2023-05-29T06:38:47;7.17;;;1.80;;
15063;SDS011;7631;52.088;5.088;2023-05-29T06:41:13;4.77;;;1.80;;
15063;SDS011;7631;52.088;5.088;2023-05-29T06:43:38;8.37;;;2.07;;
15063;SDS011;7631;52.088;5.088;2023-05-29T06:46:03;7.17;;;2.20;;
15063;SDS011;7631;52.088;5.088;2023-05-29T06:48:32;5.10;;;1.80;;
15063;SDS011;7631;52.088;5.088;2023-05-29T06:50:57;5.77;;;1.90;;
15063;SDS011;7631;52.088;5.088;2023-05-29T06:53:22;5.40;;;2.20;;
15063;SDS011;7631;52.088;5.088;2023-05-29T06:55:47;7.30;;;2.30;;
15063;SDS011;7631;52.088;5.088;2023-05-29T06:58:12;6.50;;;1.93;;
15063;SDS011;7631;52.088;5.088;2023-05-29T07:00:38;5.93;;;1.80;;
15063;SDS011;7631;52.088;5.088;2023-05-29T07:03:03;9.47;;;2.20;;
15063;SDS011;7631;52.088;5.088;2023-05-29T07:05:28;4.63;;;2.23;;
15063;SDS011;7631;52.088;5.088;2023-05-29T07:07:53;5.73;;;1.80;;
15063;SDS011;7631;52.088;5.088;2023-05-29T07:10:18;6.90;;;2.13;;
15063;SDS011;7631;52.088;5.088;2023-05-29T07:12:43;6.07;;;1.60;;
15063;SDS011;7631;52.088;5.088;2023-05-29T07:15:09;6.67;;;2.13;;
15063;SDS011;7631;52.088;5.088;2023-05-29T07:17:34;6.23;;;1.70;;
15063;SDS011;7631;52.088;5.088;2023-05-29T07:19:59;5.73;;;1.83;;
15063;SDS011;7631;52.088;5.088;2023-05-29T07:22:25;5.37;;;1.80;;
15063;SDS011;7631;52.088;5.088;2023-05-29T07:24:50;7.03;;;2.03;;
15063;SDS011;7631;52.088;5.088;2023-05-29T07:27:15;6.83;;;2.10;;
15063;SDS011;7631;52.088;5.088;2023-05-29T07:29:40;5.87;;;2.10;;
15063;SDS011;7631;52.088;5.088;2023-05-29T07:32:05;6.50;;;2.10;;
15063;SDS011;7631;52.088;5.088;2023-05-29T07:34:31;4.17;;;1.83;;
15063;SDS011;7631;52.088;5.088;2023-05-29T07:37:00;6.07;;;1.93;;
15063;SDS011;7631;52.088;5.088;2023-05-29T07:39:25;7.63;;;2.20;;
15063;SDS011;7631;52.088;5.088;2023-05-29T07:41:50;5.30;;;2.17;;
15063;SDS011;7631;52.088;5.088;2023-05-29T07:44:16;4.63;;;1.80;;
15063;SDS011;7631;52.088;5.088;2023-05-29T07:46:41;4.07;;;1.83;;
15063;SDS011;7631;52.088;5.088;2023-05-29T07:49:06;7.87;;;1.97;;
15063;SDS011;7631;52.088;5.088;2023-05-29T07:51:32;7.30;;;2.67;;
15063;SDS011;7631;52.088;5.088;2023-05-29T07:53:57;6.20;;;2.40;;
15063;SDS011;7631;52.088;5.088;2023-05-29T07:56:22;7.70;;;1.90;;
15063;SDS011;7631;52.088;5.088;2023-05-29T07:58:47;5.07;;;2.10;;
15063;SDS011;7631;52.088;5.088;2023-05-29T08:01:12;4.90;;;2.13;;
15063;SDS011;7631;52.088;5.088;2023-05-29T08:03:38;6.17;;;1.87;;
15063;SDS011;7631;52.088;5.088;2023-05-29T08:06:03;6.10;;;1.90;;
15063;SDS011;7631;52.088;5.088;2023-05-29T08:08:29;4.37;;;1.77;;
15063;SDS011;7631;52.088;5.088;2023-05-29T08:10:55;4.20;;;1.87;;
15063;SDS011;7631;52.088;5.088;2023-05-29T08:13:20;6.60;;;2.23;;
15063;SDS011;7631;52.088;5.088;2023-05-29T08:15:45;7.43;;;2.03;;
15063;SDS011;7631;52.088;5.088;2023-05-29T08:18:10;8.60;;;2.40;;
15063;SDS011;7631;52.088;5.088;2023-05-29T08:20:36;7.90;;;2.10;;
15063;SDS011;7631;52.088;5.088;2023-05-29T08:23:01;5.50;;;2.20;;
15063;SDS011;7631;52.088;5.088;2023-05-29T08:25:26;4.60;;;1.90;;
15063;SDS011;7631;52.088;5.088;2023-05-29T08:27:51;6.10;;;2.27;;
15063;SDS011;7631;52.088;5.088;2023-05-29T08:30:16;4.10;;;1.43;;
15063;SDS011;7631;52.088;5.088;2023-05-29T08:32:42;3.70;;;1.87;;
15063;SDS011;7631;52.088;5.088;2023-05-29T08:35:07;7.13;;;2.37;;
15063;SDS011;7631;52.088;5.088;2023-05-29T08:37:33;3.90;;;1.90;;
15063;SDS011;7631;52.088;5.088;2023-05-29T08:39:58;7.53;;;2.30;;
15063;SDS011;7631;52.088;5.088;2023-05-29T08:42:27;4.30;;;1.80;;
15063;SDS011;7631;52.088;5.088;2023-05-29T08:44:55;5.17;;;2.30;;
15063;SDS011;7631;52.088;5.088;2023-05-29T08:47:22;4.73;;;2.13;;
15063;SDS011;7631;52.088;5.088;2023-05-29T08:49:53;5.13;;;1.77;;
15063;SDS011;7631;52.088;5.088;2023-05-29T08:52:19;5.13;;;2.30;;
15063;SDS011;7631;52.088;5.088;2023-05-29T08:54:45;4.07;;;1.80;;
15063;SDS011;7631;52.088;5.088;2023-05-29T08:57:11;4.40;;;1.80;;
15063;SDS011;7631;52.088;5.088;2023-05-29T08:59:37;5.23;;;1.90;;
15063;SDS011;7631;52.088;5.088;2023-05-29T09:02:03;6.33;;;2.23;;
15063;SDS011;7631;52.088;5.088;2023-05-29T09:04:29;10.43;;;2.60;;
15063;SDS011;7631;52.088;5.088;2023-05-29T09:06:55;6.70;;;2.00;;
15063;SDS011;7631;52.088;5.088;2023-05-29T09:09:20;5.00;;;1.90;;
15063;SDS011;7631;52.088;5.088;2023-05-29T09:11:46;6.90;;;2.43;;
15063;SDS011;7631;52.088;5.088;2023-05-29T09:16:56;4.93;;;2.00;;
15063;SDS011;7631;52.088;5.088;2023-05-29T09:19:21;5.33;;;2.13;;
15063;SDS011;7631;52.088;5.088;2023-05-29T09:21:46;5.33;;;2.10;;
15063;SDS011;7631;52.088;5.088;2023-05-29T09:24:13;4.83;;;2.07;;
15063;SDS011;7631;52.088;5.088;2023-05-29T09:26:39;6.07;;;2.10;;
15063;SDS011;7631;52.088;5.088;2023-05-29T09:29:04;6.23;;;2.10;;
15063;SDS011;7631;52.088;5.088;2023-05-29T09:31:30;4.50;;;1.90;;
15063;SDS011;7631;52.088;5.088;2023-05-29T09:33:55;4.80;;;1.80;;
15063;SDS011;7631;52.088;5.088;2023-05-29T09:36:23;4.47;;;2.00;;
15063;SDS011;7631;52.088;5.088;2023-05-29T09:38:48;4.50;;;2.03;;
15063;SDS011;7631;52.088;5.088;2023-05-29T09:41:20;5.30;;;2.10;;
15063;SDS011;7631;52.088;5.088;2023-05-29T09:43:45;4.47;;;1.87;;
15063;SDS011;7631;52.088;5.088;2023-05-29T09:46:14;5.70;;;1.90;;
15063;SDS011;7631;52.088;5.088;2023-05-29T09:48:40;5.13;;;1.90;;
15063;SDS011;7631;52.088;5.088;2023-05-29T09:51:05;5.07;;;1.90;;
15063;SDS011;7631;52.088;5.088;2023-05-29T09:53:30;4.87;;;2.00;;
15063;SDS011;7631;52.088;5.088;2023-05-29T09:55:56;4.97;;;2.00;;
15063;SDS011;7631;52.088;5.088;2023-05-29T09:58:21;4.13;;;1.80;;
15063;SDS011;7631;52.088;5.088;2023-05-29T10:00:47;6.03;;;2.07;;
15063;SDS011;7631;52.088;5.088;2023-05-29T10:03:13;3.83;;;1.90;;
15063;SDS011;7631;52.088;5.088;2023-05-29T10:05:39;4.70;;;2.20;;
15063;SDS011;7631;52.088;5.088;2023-05-29T10:08:05;5.00;;;2.00;;
15063;SDS011;7631;52.088;5.088;2023-05-29T10:10:31;3.57;;;1.53;;
15063;SDS011;7631;52.088;5.088;2023-05-29T10:12:57;4.37;;;1.80;;
15063;SDS011;7631;52.088;5.088;2023-05-29T10:15:23;5.60;;;2.10;;
15063;SDS011;7631;52.088;5.088;2023-05-29T10:18:05;4.57;;;2.23;;
15063;SDS011;7631;52.088;5.088;2023-05-29T10:20:31;3.92;;;1.60;;
15063;SDS011;7631;52.088;5.088;2023-05-29T10:22:56;4.77;;;1.90;;
15063;SDS011;7631;52.088;5.088;2023-05-29T10:25:23;4.50;;;1.90;;
15063;SDS011;7631;52.088;5.088;2023-05-29T10:27:49;4.70;;;1.87;;
15063;SDS011;7631;52.088;5.088;2023-05-29T10:35:46;4.37;;;1.80;;
15063;SDS011;7631;52.088;5.088;2023-05-29T10:38:11;4.43;;;1.87;;
15063;SDS011;7631;52.088;5.088;2023-05-29T10:40:37;3.43;;;1.73;;
15063;SDS011;7631;52.088;5.088;2023-05-29T10:43:03;4.80;;;1.70;;
15063;SDS011;7631;52.088;5.088;2023-05-29T10:48:34;3.97;;;2.03;;
15063;SDS011;7631;52.088;5.088;2023-05-29T10:50:45;4.00;;;1.80;;
15063;SDS011;7631;52.088;5.088;2023-05-29T10:53:16;3.93;;;1.90;;
15063;SDS011;7631;52.088;5.088;2023-05-29T10:55:42;4.22;;;1.90;;
15063;SDS011;7631;52.088;5.088;2023-05-29T10:58:20;5.25;;;2.20;;
15063;SDS011;7631;52.088;5.088;2023-05-29T11:00:46;5.05;;;2.22;;
15063;SDS011;7631;52.088;5.088;2023-05-29T11:03:15;4.60;;;1.80;;
15063;SDS011;7631;52.088;5.088;2023-05-29T11:08:35;7.03;;;2.25;;
15063;SDS011;7631;52.088;5.088;2023-05-29T11:11:00;4.17;;;2.10;;
15063;SDS011;7631;52.088;5.088;2023-05-29T11:13:27;4.82;;;1.92;;
15063;SDS011;7631;52.088;5.088;2023-05-29T11:16:05;5.53;;;2.00;;
15063;SDS011;7631;52.088;5.088;2023-05-29T11:18:31;4.70;;;2.03;;
15063;SDS011;7631;52.088;5.088;2023-05-29T11:21:00;5.90;;;2.35;;
15063;SDS011;7631;52.088;5.088;2023-05-29T11:23:29;4.72;;;2.22;;
15063;SDS011;7631;52.088;5.088;2023-05-29T11:25:56;4.95;;;2.38;;
15063;SDS011;7631;52.088;5.088;2023-05-29T11:28:22;5.22;;;2.30;;
15063;SDS011;7631;52.088;5.088;2023-05-29T11:30:47;4.22;;;2.33;;
15063;SDS011;7631;52.088;5.088;2023-05-29T11:33:17;5.55;;;2.33;;
15063;SDS011;7631;52.088;5.088;2023-05-29T11:35:43;4.85;;;2.10;;
15063;SDS011;7631;52.088;5.088;2023-05-29T11:38:08;6.55;;;2.05;;
15063;SDS011;7631;52.088;5.088;2023-05-29T11:40:36;4.78;;;2.17;;
15063;SDS011;7631;52.088;5.088;2023-05-29T11:43:02;5.10;;;2.42;;
15063;SDS011;7631;52.088;5.088;2023-05-29T11:45:31;5.78;;;2.25;;
15063;SDS011;7631;52.088;5.088;2023-05-29T11:47:57;5.32;;;2.40;;
15063;SDS011;7631;52.088;5.088;2023-05-29T11:50:23;5.30;;;2.28;;
15063;SDS011;7631;52.088;5.088;2023-05-29T11:52:49;6.93;;;2.70;;
15063;SDS011;7631;52.088;5.088;2023-05-29T11:55:14;4.10;;;2.13;;
15063;SDS011;7631;52.088;5.088;2023-05-29T11:57:39;4.63;;;2.30;;
15063;SDS011;7631;52.088;5.088;2023-05-29T12:00:06;4.28;;;2.13;;
15063;SDS011;7631;52.088;5.088;2023-05-29T12:02:37;6.10;;;2.60;;
15063;SDS011;7631;52.088;5.088;2023-05-29T12:05:03;6.53;;;2.58;;
15063;SDS011;7631;52.088;5.088;2023-05-29T12:07:29;4.82;;;2.35;;
15063;SDS011;7631;52.088;5.088;2023-05-29T12:09:54;4.88;;;2.38;;
15063;SDS011;7631;52.088;5.088;2023-05-29T12:12:23;5.95;;;2.67;;
15063;SDS011;7631;52.088;5.088;2023-05-29T12:14:51;5.28;;;2.05;;
15063;SDS011;7631;52.088;5.088;2023-05-29T12:17:17;5.38;;;2.35;;
15063;SDS011;7631;52.088;5.088;2023-05-29T12:19:42;4.93;;;2.15;;
15063;SDS011;7631;52.088;5.088;2023-05-29T12:22:08;5.97;;;2.58;;
15063;SDS011;7631;52.088;5.088;2023-05-29T12:24:34;5.20;;;2.22;;
15063;SDS011;7631;52.088;5.088;2023-05-29T12:26:59;7.00;;;2.78;;
15063;SDS011;7631;52.088;5.088;2023-05-29T12:29:29;6.32;;;2.55;;
15063;SDS011;7631;52.088;5.088;2023-05-29T12:31:58;7.65;;;3.03;;
15063;SDS011;7631;52.088;5.088;2023-05-29T12:34:24;6.07;;;2.15;;
15063;SDS011;7631;52.088;5.088;2023-05-29T12:36:49;6.53;;;2.70;;
15063;SDS011;7631;52.088;5.088;2023-05-29T12:39:15;5.80;;;2.60;;
15063;SDS011;7631;52.088;5.088;2023-05-29T12:41:40;6.65;;;2.85;;
15063;SDS011;7631;52.088;5.088;2023-05-29T12:44:06;4.80;;;2.50;;
15063;SDS011;7631;52.088;5.088;2023-05-29T12:46:35;5.75;;;2.30;;
15063;SDS011;7631;52.088;5.088;2023-05-29T12:49:11;5.90;;;2.83;;
15063;SDS011;7631;52.088;5.088;2023-05-29T12:51:36;5.55;;;2.80;;
15063;SDS011;7631;52.088;5.088;2023-05-29T12:54:05;8.82;;;2.92;;
15063;SDS011;7631;52.088;5.088;2023-05-29T12:56:30;7.27;;;3.20;;
15063;SDS011;7631;52.088;5.088;2023-05-29T12:58:55;7.25;;;2.95;;
15063;SDS011;7631;52.088;5.088;2023-05-29T13:01:21;7.05;;;2.65;;
15063;SDS011;7631;52.088;5.088;2023-05-29T13:03:46;7.05;;;2.75;;
15063;SDS011;7631;52.088;5.088;2023-05-29T13:06:11;6.55;;;2.47;;
15063;SDS011;7631;52.088;5.088;2023-05-29T13:08:37;7.07;;;3.30;;
15063;SDS011;7631;52.088;5.088;2023-05-29T13:11:02;6.45;;;2.95;;
15063;SDS011;7631;52.088;5.088;2023-05-29T13:13:27;6.75;;;2.78;;
15063;SDS011;7631;52.088;5.088;2023-05-29T13:15:52;5.90;;;2.60;;
15063;SDS011;7631;52.088;5.088;2023-05-29T13:18:18;4.85;;;2.30;;
15063;SDS011;7631;52.088;5.088;2023-05-29T13:20:43;6.60;;;2.63;;
15063;SDS011;7631;52.088;5.088;2023-05-29T13:23:08;6.15;;;2.78;;
15063;SDS011;7631;52.088;5.088;2023-05-29T13:25:34;6.30;;;2.70;;
15063;SDS011;7631;52.088;5.088;2023-05-29T13:27:59;6.43;;;2.53;;
15063;SDS011;7631;52.088;5.088;2023-05-29T13:30:24;7.93;;;2.45;;
15063;SDS011;7631;52.088;5.088;2023-05-29T13:32:50;5.55;;;2.15;;
15063;SDS011;7631;52.088;5.088;2023-05-29T13:35:15;8.13;;;2.60;;
15063;SDS011;7631;52.088;5.088;2023-05-29T13:37:41;7.90;;;2.92;;
15063;SDS011;7631;52.088;5.088;2023-05-29T13:40:08;7.22;;;2.70;;
15063;SDS011;7631;52.088;5.088;2023-05-29T13:42:34;6.63;;;3.00;;
15063;SDS011;7631;52.088;5.088;2023-05-29T13:44:59;5.15;;;2.25;;
15063;SDS011;7631;52.088;5.088;2023-05-29T13:47:24;7.40;;;3.00;;
15063;SDS011;7631;52.088;5.088;2023-05-29T13:49:53;8.52;;;3.03;;
15063;SDS011;7631;52.088;5.088;2023-05-29T13:52:18;5.78;;;2.80;;
15063;SDS011;7631;52.088;5.088;2023-05-29T13:54:44;7.72;;;3.22;;
15063;SDS011;7631;52.088;5.088;2023-05-29T13:57:09;6.35;;;2.58;;
15063;SDS011;7631;52.088;5.088;2023-05-29T13:59:34;7.78;;;2.63;;
15063;SDS011;7631;52.088;5.088;2023-05-29T14:02:00;6.28;;;2.70;;
15063;SDS011;7631;52.088;5.088;2023-05-29T14:04:26;6.78;;;2.42;;
15063;SDS011;7631;52.088;5.088;2023-05-29T14:06:51;5.50;;;2.65;;
15063;SDS011;7631;52.088;5.088;2023-05-29T14:09:17;7.78;;;2.88;;
15063;SDS011;7631;52.088;5.088;2023-05-29T14:11:48;6.55;;;2.47;;
15063;SDS011;7631;52.088;5.088;2023-05-29T14:14:13;5.40;;;2.40;;
15063;SDS011;7631;52.088;5.088;2023-05-29T14:16:38;6.20;;;2.83;;
15063;SDS011;7631;52.088;5.088;2023-05-29T14:19:03;6.78;;;2.75;;
15063;SDS011;7631;52.088;5.088;2023-05-29T14:21:28;6.22;;;2.58;;
15063;SDS011;7631;52.088;5.088;2023-05-29T14:23:54;6.43;;;2.70;;
15063;SDS011;7631;52.088;5.088;2023-05-29T14:26:19;6.70;;;2.95;;
15063;SDS011;7631;52.088;5.088;2023-05-29T14:28:44;6.13;;;2.78;;
15063;SDS011;7631;52.088;5.088;2023-05-29T14:31:09;5.07;;;2.83;;
15063;SDS011;7631;52.088;5.088;2023-05-29T14:33:35;6.00;;;2.45;;
15063;SDS011;7631;52.088;5.088;2023-05-29T14:36:01;6.03;;;2.65;;
15063;SDS011;7631;52.088;5.088;2023-05-29T14:38:26;5.65;;;2.40;;
15063;SDS011;7631;52.088;5.088;2023-05-29T14:40:52;4.93;;;2.70;;
15063;SDS011;7631;52.088;5.088;2023-05-29T14:43:17;6.38;;;2.50;;
15063;SDS011;7631;52.088;5.088;2023-05-29T14:45:42;9.63;;;2.78;;
15063;SDS011;7631;52.088;5.088;2023-05-29T14:48:07;5.28;;;2.33;;
15063;SDS011;7631;52.088;5.088;2023-05-29T14:50:33;6.50;;;3.10;;
15063;SDS011;7631;52.088;5.088;2023-05-29T14:52:58;5.10;;;2.30;;
15063;SDS011;7631;52.088;5.088;2023-05-29T14:55:23;7.20;;;2.65;;
15063;SDS011;7631;52.088;5.088;2023-05-29T14:57:48;6.90;;;2.83;;
15063;SDS011;7631;52.088;5.088;2023-05-29T15:00:14;6.32;;;2.70;;
15063;SDS011;7631;52.088;5.088;2023-05-29T15:02:39;6.30;;;2.67;;
15063;SDS011;7631;52.088;5.088;2023-05-29T15:05:04;5.22;;;2.60;;
15063;SDS011;7631;52.088;5.088;2023-05-29T15:07:30;5.82;;;2.72;;
15063;SDS011;7631;52.088;5.088;2023-05-29T15:09:55;6.00;;;2.50;;
15063;SDS011;7631;52.088;5.088;2023-05-29T15:12:21;5.80;;;2.70;;